createdAt,value
2023-02-20T00:00:16.407Z,100188.48
2023-02-20T00:05:39.374Z,100191.02
2023-02-20T00:10:43.001Z,100191.95
2023-02-20T00:15:46.120Z,100185.09
2023-02-20T00:20:49.304Z,100182.02
2023-02-20T00:25:52.414Z,100176.36
2023-02-20T00:30:55.945Z,100175.89
2023-02-20T00:35:59.034Z,100177.60
2023-02-20T00:41:02.141Z,100178.04
2023-02-20T00:46:05.695Z,100179.52
2023-02-20T00:51:09.174Z,100167.10
2023-02-20T00:56:12.985Z,100163.11
2023-02-20T01:01:17.403Z,100163.58
2023-02-20T01:06:20.550Z,100167.48
2023-02-20T01:11:23.849Z,100172.73
2023-02-20T01:16:27.116Z,100169.02
2023-02-20T01:21:30.477Z,100167.63
2023-02-20T01:26:33.888Z,100170.64
2023-02-20T01:31:36.939Z,100169.77
2023-02-20T01:36:45.310Z,100155.73
2023-02-20T01:41:51.252Z,100147.05
2023-02-20T01:46:56.816Z,100144.95
2023-02-20T01:52:23.921Z,100152.80
2023-02-20T01:57:30.284Z,100154.78
2023-02-20T02:02:38.119Z,100158.48
2023-02-20T02:07:41.723Z,100157.34
2023-02-20T02:12:51.800Z,100153.52
2023-02-20T02:18:11.391Z,100149.84
2023-02-20T02:23:42.350Z,100148.00
2023-02-20T02:29:21.189Z,100137.68
2023-02-20T02:35:01.264Z,100131.10
2023-02-20T02:40:25.870Z,100128.94
2023-02-20T02:45:42.932Z,100125.09
2023-02-20T02:50:48.772Z,100126.55
2023-02-20T02:55:51.882Z,100116.49
2023-02-20T03:01:02.276Z,100108.95
2023-02-20T03:06:12.242Z,100104.57
2023-02-20T03:11:18.596Z,100100.73
2023-02-20T03:16:28.883Z,100096.50
2023-02-20T03:21:35.161Z,100093.00
2023-02-20T03:26:41.107Z,100098.20
2023-02-20T03:32:17.462Z,100089.40
2023-02-20T03:37:41.827Z,100088.45
2023-02-20T03:43:09.264Z,100089.95
2023-02-20T03:48:18.846Z,100090.84
2023-02-20T03:53:22.380Z,100090.14
2023-02-20T03:58:28.064Z,100088.58
2023-02-20T04:03:37.493Z,100085.59
2023-02-20T04:09:10.496Z,100082.41
2023-02-20T04:14:15.753Z,100078.86
2023-02-20T04:19:19.168Z,100080.48
2023-02-20T04:24:31.976Z,100074.80
2023-02-20T04:29:35.310Z,100059.34
2023-02-20T04:34:38.515Z,100054.40
2023-02-20T04:39:41.825Z,100052.36
2023-02-20T04:44:44.686Z,100057.45
2023-02-20T04:49:48.656Z,100061.45
2023-02-20T04:54:51.954Z,100053.03
2023-02-20T04:59:54.959Z,100039.45
2023-02-20T05:04:58.167Z,100037.77
2023-02-20T05:10:01.180Z,100019.74
2023-02-20T05:15:05.040Z,100008.52
2023-02-20T05:20:09.432Z,100013.54
2023-02-20T05:25:13.664Z,100004.80
2023-02-20T05:30:16.918Z,100001.14
2023-02-20T05:35:20.591Z,99989.58
2023-02-20T05:40:23.651Z,99993.61
2023-02-20T05:45:26.905Z,99990.83
2023-02-20T05:50:30.312Z,99974.67
2023-02-20T05:55:34.137Z,99963.59
2023-02-20T06:00:37.284Z,99946.80
2023-02-20T06:05:40.451Z,99939.08
2023-02-20T06:10:43.763Z,99931.09
2023-02-20T06:15:46.977Z,99927.09
2023-02-20T06:20:50.185Z,99927.66
2023-02-20T06:25:53.281Z,99931.36
2023-02-20T06:30:56.811Z,99916.05
2023-02-20T06:36:00.315Z,99910.89
2023-02-20T06:41:03.830Z,99905.23
2023-02-20T06:46:07.759Z,99897.92
2023-02-20T06:51:11.481Z,99896.35
2023-02-20T06:56:18.885Z,99904.93
2023-02-20T07:01:24.449Z,99901.61
2023-02-20T07:06:27.656Z,99884.65
2023-02-20T07:11:30.867Z,99871.92
2023-02-20T07:16:34.076Z,99862.73
2023-02-20T07:21:37.688Z,99856.50
2023-02-20T07:26:40.798Z,99843.29
2023-02-20T07:31:43.978Z,99829.31
2023-02-20T07:36:47.413Z,99814.33
2023-02-20T07:41:51.541Z,99801.36
2023-02-20T07:46:54.953Z,99785.73
2023-02-20T07:51:57.958Z,99771.46
2023-02-20T07:57:01.065Z,99755.23
2023-02-20T08:02:05.908Z,99733.90
2023-02-20T08:07:09.011Z,99711.16
2023-02-20T08:12:12.535Z,99694.08
2023-02-20T08:17:15.848Z,99677.77
2023-02-20T08:22:19.054Z,99649.17
2023-02-20T08:27:22.379Z,99618.99
2023-02-20T08:32:26.034Z,99593.11
2023-02-20T08:37:29.279Z,99571.33
2023-02-20T08:42:34.224Z,99567.39
2023-02-20T08:47:37.346Z,99547.77
2023-02-20T08:52:43.121Z,99531.04
2023-02-20T08:57:46.614Z,99506.83
2023-02-20T09:02:49.759Z,99483.55
2023-02-20T09:07:52.838Z,99472.98
2023-02-20T09:12:56.242Z,99474.92
2023-02-20T09:17:59.963Z,99472.96
2023-02-20T09:23:03.271Z,99462.20
2023-02-20T09:28:06.481Z,99441.64
2023-02-20T09:33:09.897Z,99414.30
2023-02-20T09:38:13.106Z,99384.12
2023-02-20T09:43:22.354Z,99363.00
2023-02-20T09:48:29.146Z,99341.42
2023-02-20T09:53:39.106Z,99313.07
2023-02-20T09:58:47.334Z,99280.63
2023-02-20T10:03:50.337Z,99244.27
2023-02-20T10:08:54.754Z,99244.38
2023-02-20T10:14:39.153Z,99249.98
2023-02-20T10:19:49.014Z,99215.02
2023-02-20T10:24:58.263Z,99197.39
2023-02-20T10:30:06.794Z,99189.16
2023-02-20T10:35:16.247Z,99189.76
2023-02-20T10:40:25.091Z,99179.64
2023-02-20T10:45:38.851Z,99165.73
2023-02-20T10:51:00.896Z,99146.77
2023-02-20T10:56:16.183Z,99136.68
2023-02-20T11:01:23.061Z,99121.72
2023-02-20T11:07:05.093Z,99108.73
2023-02-20T11:12:22.260Z,99088.81
2023-02-20T11:17:27.788Z,99068.38
2023-02-20T11:22:45.227Z,99058.59
2023-02-20T11:27:55.407Z,99048.58
2023-02-20T11:33:06.812Z,99026.90
2023-02-20T11:38:23.554Z,99004.27
2023-02-20T11:43:34.935Z,98990.64
2023-02-20T11:48:40.732Z,98971.79
2023-02-20T11:53:44.933Z,98967.94
2023-02-20T11:58:48.644Z,98969.50
2023-02-20T12:03:57.628Z,98955.30
2023-02-20T12:09:03.756Z,98946.38
2023-02-20T12:14:13.030Z,98942.91
2023-02-20T12:19:16.113Z,98927.11
2023-02-20T12:24:30.282Z,98908.48
2023-02-20T12:29:47.114Z,98894.15
2023-02-20T12:35:10.391Z,98886.88
2023-02-20T12:40:38.072Z,98879.98
2023-02-20T12:45:50.295Z,98872.15
2023-02-20T12:51:05.885Z,98858.45
2023-02-20T12:56:20.366Z,98844.97
2023-02-20T13:01:38.304Z,98846.53
2023-02-20T13:06:58.831Z,98832.15
2023-02-20T13:12:07.357Z,98820.23
2023-02-20T13:17:29.657Z,98810.70
2023-02-20T13:22:32.925Z,98804.94
2023-02-20T13:27:36.823Z,98792.45
2023-02-20T13:32:40.399Z,98766.03
2023-02-20T13:37:43.675Z,98759.02
2023-02-20T13:42:46.775Z,98744.50
2023-02-20T13:47:49.884Z,98734.14
2023-02-20T13:52:57.313Z,98726.30
2023-02-20T13:58:06.646Z,98717.30
2023-02-20T14:03:19.335Z,98732.50
2023-02-20T14:08:22.683Z,98738.98
2023-02-20T14:13:39.450Z,98728.98
2023-02-20T14:18:44.158Z,98729.20
2023-02-20T14:23:50.076Z,98729.25
2023-02-20T14:28:55.732Z,98727.96
2023-02-20T14:34:02.764Z,98725.64
2023-02-20T14:39:41.123Z,98718.78
2023-02-20T14:44:49.897Z,98709.21
2023-02-20T14:49:53.263Z,98704.30
2023-02-20T14:55:02.424Z,98691.70
2023-02-20T15:00:17.600Z,98689.08
2023-02-20T15:05:27.062Z,98686.43
2023-02-20T15:10:41.176Z,98677.68
2023-02-20T15:15:47.963Z,98668.70
2023-02-20T15:20:51.425Z,98660.34
2023-02-20T15:25:54.631Z,98650.65
2023-02-20T15:31:11.541Z,98630.59
2023-02-20T15:36:20.100Z,98621.48
2023-02-20T15:41:24.499Z,98612.18
2023-02-20T15:46:28.240Z,98602.10
2023-02-20T15:51:36.889Z,98594.06
2023-02-20T15:56:40.926Z,98586.23
2023-02-20T16:01:44.314Z,98581.73
2023-02-20T16:06:48.152Z,98584.25
2023-02-20T16:11:51.586Z,98589.52
2023-02-20T16:16:55.187Z,98587.52
2023-02-20T16:22:00.239Z,98583.48
2023-02-20T16:27:07.676Z,98587.19
2023-02-20T16:32:17.306Z,98589.48
2023-02-20T16:37:22.453Z,98596.98
2023-02-20T16:42:34.960Z,98609.50
2023-02-20T16:47:39.688Z,98616.85
2023-02-20T16:52:44.168Z,98612.98
2023-02-20T16:57:47.680Z,98609.02
2023-02-20T17:02:53.940Z,98613.73
2023-02-20T17:07:59.186Z,98612.65
2023-02-20T17:13:02.835Z,98619.96
2023-02-20T17:18:06.138Z,98621.91
2023-02-20T17:23:10.474Z,98623.08
2023-02-20T17:28:16.763Z,98616.23
2023-02-20T17:33:20.166Z,98641.52
2023-02-20T17:38:24.559Z,98655.59
2023-02-20T17:43:28.462Z,98656.72
2023-02-20T17:48:31.849Z,98650.13
2023-02-20T17:53:35.676Z,98653.44
2023-02-20T17:58:39.720Z,98651.06
2023-02-20T18:03:43.743Z,98646.20
2023-02-20T18:08:51.222Z,98646.21
2023-02-20T18:13:57.210Z,98657.98
2023-02-20T18:19:02.553Z,98673.45
2023-02-20T18:24:07.296Z,98674.16
2023-02-20T18:29:10.914Z,98671.40
2023-02-20T18:34:14.708Z,98671.21
2023-02-20T18:39:18.043Z,98671.70
2023-02-20T18:44:23.587Z,98670.66
2023-02-20T18:49:26.937Z,98656.30
2023-02-20T18:54:33.327Z,98658.94
2023-02-20T18:59:42.420Z,98666.88
2023-02-20T19:04:50.454Z,98669.54
2023-02-20T19:09:54.602Z,98665.48
2023-02-20T19:14:58.018Z,98662.84
2023-02-20T19:20:02.481Z,98668.43
2023-02-20T19:25:11.477Z,98655.97
2023-02-20T19:30:21.446Z,98653.14
2023-02-20T19:35:26.011Z,98655.44
2023-02-20T19:40:30.664Z,98655.07
2023-02-20T19:45:35.120Z,98659.65
2023-02-20T19:50:40.656Z,98664.95
2023-02-20T19:55:44.858Z,98677.14
2023-02-20T20:00:48.708Z,98678.29
2023-02-20T20:05:54.086Z,98690.16
2023-02-20T20:10:59.983Z,98700.13
2023-02-20T20:16:03.346Z,98701.44
2023-02-20T20:21:07.176Z,98707.41
2023-02-20T20:26:11.406Z,98701.05
2023-02-20T20:31:19.986Z,98711.84
2023-02-20T20:36:23.426Z,98710.25
2023-02-20T20:41:30.454Z,98713.44
2023-02-20T20:46:40.098Z,98713.77
2023-02-20T20:51:46.075Z,98709.01
2023-02-20T20:56:51.426Z,98705.33
2023-02-20T21:01:55.021Z,98712.91
2023-02-20T21:06:59.798Z,98709.54
2023-02-20T21:12:04.331Z,98711.11
2023-02-20T21:17:11.634Z,98712.12
2023-02-20T21:22:15.956Z,98714.08
2023-02-20T21:27:19.380Z,98718.46
2023-02-20T21:32:22.998Z,98713.64
2023-02-20T21:37:28.166Z,98709.95
2023-02-20T21:42:49.997Z,98703.48
2023-02-20T21:47:53.411Z,98704.75
2023-02-20T21:52:56.727Z,98709.01
2023-02-20T21:57:59.826Z,98707.40
2023-02-20T22:03:03.288Z,98710.76
2023-02-20T22:08:25.699Z,98713.76
2023-02-20T22:13:47.960Z,98716.54
2023-02-20T22:19:09.902Z,98719.67
2023-02-20T22:24:38.638Z,98726.70
2023-02-20T22:30:01.074Z,98726.64
2023-02-20T22:35:25.476Z,98722.98
2023-02-20T22:40:48.294Z,98722.89
2023-02-20T22:46:10.610Z,98734.69
2023-02-20T22:51:33.976Z,98731.50
2023-02-20T22:56:56.346Z,98734.52
2023-02-20T23:02:18.031Z,98743.02
2023-02-20T23:07:40.661Z,98745.05
2023-02-20T23:13:02.293Z,98733.16
2023-02-20T23:18:24.238Z,98730.60
2023-02-20T23:23:45.774Z,98730.94
2023-02-20T23:29:07.618Z,98731.08
2023-02-20T23:34:29.355Z,98734.54
2023-02-20T23:39:51.713Z,98732.02
2023-02-20T23:45:13.962Z,98725.66
2023-02-20T23:50:36.112Z,98725.02
2023-02-20T23:55:57.962Z,98733.44
